createdAt,value
2019-03-30T03:07:17.094Z,0.3
2019-03-30T03:08:07.168Z,0.3
2019-03-30T03:08:57.210Z,0.3
2019-03-30T03:09:47.257Z,0.3
2019-03-30T03:10:37.353Z,0.3
2019-03-30T03:11:27.362Z,0.2
2019-03-30T03:12:17.144Z,0.2
2019-03-30T03:13:07.492Z,0.2
2019-03-30T03:13:57.581Z,0.1
2019-03-30T03:14:47.594Z,0.1
2019-03-30T03:15:37.691Z,0.1
2019-03-30T03:16:29.592Z,0.1
2019-03-30T03:17:17.815Z,0
2019-03-30T03:18:08.052Z,0
2019-03-30T03:18:57.901Z,0
2019-03-30T03:19:47.418Z,-0.1
2019-03-30T03:20:38.102Z,-0.1
2019-03-30T03:21:27.830Z,-0.1
2019-03-30T03:22:17.884Z,-0.1
2019-03-30T03:23:08.203Z,-0.1
2019-03-30T03:23:58.348Z,-0.1
2019-03-30T03:24:47.774Z,-0.2
2019-03-30T03:25:38.387Z,-0.2
2019-03-30T03:26:28.192Z,-0.3
2019-03-30T03:27:18.510Z,-0.3
2019-03-30T03:28:08.569Z,-0.3
2019-03-30T03:28:58.640Z,-0.3
2019-03-30T03:29:48.758Z,-0.3
2019-03-30T03:30:38.526Z,-0.3
2019-03-30T03:31:29.154Z,-0.4
2019-03-30T03:32:18.601Z,-0.4
2019-03-30T03:33:09.031Z,-0.4
2019-03-30T03:33:59.304Z,-0.4
2019-03-30T03:34:49.113Z,-0.4
2019-03-30T03:35:39.086Z,-0.4
2019-03-30T03:36:29.135Z,-0.4
2019-03-30T03:37:18.940Z,-0.4
2019-03-30T03:38:09.042Z,-0.5
2019-03-30T03:38:59.330Z,-0.5
2019-03-30T03:39:49.159Z,-0.5
2019-03-30T03:40:39.501Z,-0.5
2019-03-30T03:41:29.626Z,-0.6
2019-03-30T03:42:19.298Z,-0.6
2019-03-30T03:43:09.348Z,-0.6
2019-03-30T03:43:59.690Z,-0.6
2019-03-30T03:44:49.481Z,-0.6
2019-03-30T03:45:39.810Z,-0.6
2019-03-30T03:46:29.315Z,-0.6
2019-03-30T03:47:19.915Z,-0.6
2019-03-30T03:48:09.992Z,-0.6
2019-03-30T03:48:59.488Z,-0.6
2019-03-30T03:49:50.139Z,-0.6
2019-03-30T03:50:40.180Z,-0.6
2019-03-30T03:51:30.238Z,-0.6
2019-03-30T03:52:20.037Z,-0.6
2019-03-30T03:53:10.062Z,-0.6
2019-03-30T03:54:00.123Z,-0.6
2019-03-30T03:54:50.493Z,-0.6
2019-03-30T03:55:40.549Z,-0.6
2019-03-30T03:56:30.679Z,-0.6
2019-03-30T03:57:20.640Z,-0.6
2019-03-30T03:58:10.699Z,-0.6
2019-03-30T03:59:00.497Z,-0.6
2019-03-30T03:59:50.912Z,-0.6
2019-03-30T04:00:40.889Z,-0.6
2019-03-30T04:01:30.950Z,-0.6
2019-03-30T04:02:20.442Z,-0.6
2019-03-30T04:03:11.094Z,-0.6
2019-03-30T04:04:00.898Z,-0.5
2019-03-30T04:04:51.212Z,-0.5
2019-03-30T04:05:41.242Z,-0.5
2019-03-30T04:06:31.323Z,-0.5
2019-03-30T04:07:21.355Z,-0.5
2019-03-30T04:08:11.147Z,-0.5
2019-03-30T04:09:01.215Z,-0.5
2019-03-30T04:09:51.016Z,-0.4
2019-03-30T04:10:41.361Z,-0.4
2019-03-30T04:11:31.397Z,-0.4
2019-03-30T04:12:21.490Z,-0.4
2019-03-30T04:13:11.531Z,-0.4
2019-03-30T04:14:01.831Z,-0.4
2019-03-30T04:14:51.354Z,-0.4
2019-03-30T04:15:41.971Z,-0.4
2019-03-30T04:16:31.739Z,-0.3
2019-03-30T04:17:21.556Z,-0.3
2019-03-30T04:18:11.757Z,-0.3
2019-03-30T04:19:02.198Z,-0.3
2019-03-30T04:19:52.402Z,-0.3
2019-03-30T04:20:42.074Z,-0.3
2019-03-30T04:21:46.311Z,-0.3
2019-03-30T04:22:22.438Z,-0.2
2019-03-30T04:23:12.498Z,-0.2
2019-03-30T04:24:02.603Z,-0.1
2019-03-30T04:24:52.495Z,-0.2
2019-03-30T04:25:42.555Z,-0.1
2019-03-30T04:26:32.376Z,-0.1
2019-03-30T04:27:22.901Z,-0.1
2019-03-30T04:28:12.969Z,-0.1
2019-03-30T04:29:02.926Z,-0.1
2019-03-30T04:29:53.016Z,0
2019-03-30T04:30:42.498Z,0
2019-03-30T04:31:33.120Z,0
2019-03-30T04:32:23.276Z,0.1
2019-03-30T04:33:13.231Z,0.1
2019-03-30T04:34:02.978Z,0.1
2019-03-30T04:34:53.152Z,0.2
2019-03-30T04:35:43.093Z,0.2
2019-03-30T04:36:33.180Z,0.2
2019-03-30T04:37:22.962Z,0.3
2019-03-30T04:38:16.269Z,0.3
2019-03-30T04:39:03.622Z,0.3
2019-03-30T04:39:53.399Z,0.3
2019-03-30T04:40:43.470Z,0.4
2019-03-30T04:41:33.804Z,0.4
2019-03-30T04:42:23.582Z,0.4
2019-03-30T04:43:13.945Z,0.4
2019-03-30T04:44:03.726Z,0.5
2019-03-30T04:44:54.044Z,0.5
2019-03-30T04:45:44.130Z,0.6
2019-03-30T04:46:33.873Z,0.6
2019-03-30T04:47:23.964Z,0.6
2019-03-30T04:48:14.288Z,0.6
2019-03-30T04:49:04.365Z,0.7
2019-03-30T04:49:54.423Z,0.7
2019-03-30T04:50:44.185Z,0.8
2019-03-30T04:51:34.534Z,0.8
2019-03-30T04:52:24.568Z,0.8
2019-03-30T04:53:14.631Z,0.9
2019-03-30T04:54:04.693Z,0.9
2019-03-30T04:54:54.768Z,0.9
2019-03-30T04:55:44.831Z,0.9
2019-03-30T04:56:34.896Z,1
2019-03-30T04:57:24.938Z,1.1
2019-03-30T04:58:14.738Z,1.1
2019-03-30T04:59:04.511Z,1.1
2019-03-30T04:59:55.128Z,1.2
2019-03-30T05:00:44.911Z,1.3
2019-03-30T05:01:35.298Z,1.3
2019-03-30T05:02:25.301Z,1.4
2019-03-30T05:03:15.090Z,1.4
2019-03-30T05:04:05.413Z,1.5
2019-03-30T05:04:55.483Z,1.6
2019-03-30T05:05:45.259Z,1.8
2019-03-30T05:06:35.611Z,1.9
2019-03-30T05:07:25.663Z,2
2019-03-30T05:08:15.428Z,2.2
2019-03-30T05:09:05.791Z,2.4
2019-03-30T05:09:55.818Z,2.6
2019-03-30T05:10:45.357Z,2.8
2019-03-30T05:11:35.953Z,2.9
2019-03-30T05:12:26.014Z,3.1
2019-03-30T05:13:15.812Z,3.3
2019-03-30T05:14:06.121Z,3.5
2019-03-30T05:14:56.182Z,3.7
2019-03-30T05:15:46.252Z,3.9
2019-03-30T05:16:36.299Z,4
2019-03-30T05:17:26.380Z,4.2
2019-03-30T05:18:15.905Z,4.4
2019-03-30T05:19:06.474Z,4.5
2019-03-30T05:19:56.544Z,4.6
2019-03-30T05:20:46.600Z,4.8
2019-03-30T05:21:36.663Z,4.9
2019-03-30T05:22:26.442Z,5.1
2019-03-30T05:23:16.834Z,5.3
2019-03-30T05:24:06.577Z,5.4
2019-03-30T05:24:56.945Z,5.5
2019-03-30T05:25:46.422Z,5.6
2019-03-30T05:26:37.022Z,5.8
2019-03-30T05:27:27.098Z,5.9
2019-03-30T05:28:17.290Z,6.1
2019-03-30T05:29:07.207Z,6.2
2019-03-30T05:29:57.315Z,6.3
2019-03-30T05:30:47.035Z,6.4
2019-03-30T05:31:37.130Z,6.5
2019-03-30T05:32:27.436Z,6.6
2019-03-30T05:33:17.496Z,6.8
2019-03-30T05:34:07.559Z,6.9
2019-03-30T05:34:57.616Z,7
2019-03-30T05:35:47.684Z,7.2
2019-03-30T05:36:37.811Z,7.3
2019-03-30T05:37:27.794Z,7.4
2019-03-30T05:38:17.862Z,7.6
2019-03-30T05:39:07.648Z,7.8
2019-03-30T05:39:57.704Z,7.9
2019-03-30T05:40:48.049Z,8.1
2019-03-30T05:41:38.116Z,8.3
2019-03-30T05:42:28.158Z,8.5
2019-03-30T05:43:18.286Z,8.8
2019-03-30T05:44:08.016Z,8.9
2019-03-30T05:44:59.967Z,9.2
2019-03-30T05:45:47.836Z,9.5
2019-03-30T05:46:37.893Z,9.8
2019-03-30T05:47:28.231Z,10
2019-03-30T05:48:18.565Z,10.3
2019-03-30T05:49:08.366Z,10.5
2019-03-30T05:49:58.751Z,10.8
2019-03-30T05:50:48.753Z,11.1
2019-03-30T05:51:38.536Z,11.4
2019-03-30T05:52:29.099Z,11.8
2019-03-30T05:53:18.694Z,12.1
2019-03-30T05:54:08.983Z,12.4
2019-03-30T05:54:59.054Z,12.8
2019-03-30T05:55:48.855Z,13.2
2019-03-30T05:56:39.172Z,13.6
2019-03-30T05:57:28.965Z,14
2019-03-30T05:58:19.016Z,14.4
2019-03-30T05:59:09.357Z,14.8
2019-03-30T05:59:58.865Z,15.1
2019-03-30T06:00:49.563Z,15.5
2019-03-30T06:01:38.980Z,15.8
2019-03-30T06:02:29.308Z,16.1
2019-03-30T06:03:19.644Z,16.4
2019-03-30T06:05:16.926Z,16.9
2019-03-30T06:06:06.992Z,17.3
2019-03-30T06:06:57.089Z,17.6
2019-03-30T06:07:47.192Z,17.8
2019-03-30T06:08:37.169Z,18.1
2019-03-30T06:09:27.240Z,18.4
2019-03-30T06:10:17.303Z,18.8
2019-03-30T06:11:07.327Z,19.1
2019-03-30T06:11:57.394Z,19.4
2019-03-30T06:12:47.192Z,19.8
2019-03-30T06:13:37.519Z,20.1
2019-03-30T06:14:27.308Z,20.5
2019-03-30T06:15:17.346Z,20.9
2019-03-30T06:16:07.697Z,21.3
2019-03-30T06:16:57.761Z,21.6
2019-03-30T06:17:47.544Z,22
2019-03-30T06:18:37.604Z,22.4
2019-03-30T06:19:27.745Z,22.8
2019-03-30T06:20:17.451Z,23.1
2019-03-30T06:21:08.057Z,23.5
2019-03-30T06:21:58.126Z,23.9
2019-03-30T06:22:48.176Z,24.3
2019-03-30T06:23:38.241Z,24.7
2019-03-30T06:24:28.013Z,25.1
2019-03-30T06:25:18.265Z,25.5
2019-03-30T06:26:08.492Z,25.9
2019-03-30T06:26:58.189Z,26.2
2019-03-30T06:27:48.247Z,26.6
2019-03-30T06:28:38.303Z,27
2019-03-30T06:29:28.373Z,27.3
2019-03-30T06:30:18.450Z,27.7
2019-03-30T06:31:08.773Z,28
2019-03-30T06:31:58.554Z,28.3
2019-03-30T06:32:48.893Z,28.7
2019-03-30T06:33:38.930Z,29
2019-03-30T06:34:29.000Z,29.4
2019-03-30T06:35:19.075Z,29.8
2019-03-30T06:36:09.127Z,30.1
2019-03-30T06:36:58.924Z,30.6
2019-03-30T06:37:48.963Z,31.1
2019-03-30T06:38:39.315Z,31.5
2019-03-30T06:39:29.088Z,32
2019-03-30T06:40:19.270Z,32.6
2019-03-30T06:41:09.546Z,33.1
2019-03-30T06:41:59.265Z,33.6
2019-03-30T06:42:49.614Z,34.3
2019-03-30T06:43:39.670Z,34.8
2019-03-30T06:44:29.173Z,35.4
2019-03-30T06:45:19.789Z,35.9
2019-03-30T06:46:09.832Z,36.6
2019-03-30T06:46:59.892Z,37.2
2019-03-30T06:47:49.988Z,37.8
2019-03-30T06:48:40.037Z,38.3
2019-03-30T06:49:30.072Z,38.8
2019-03-30T06:50:20.129Z,39.3
2019-03-30T06:51:10.202Z,39.9
2019-03-30T06:52:00.259Z,40.4
2019-03-30T06:53:00.492Z,40.9
2019-03-30T06:53:40.384Z,41.6
2019-03-30T06:54:30.432Z,42.1
2019-03-30T06:55:20.497Z,42.6
2019-03-30T06:56:10.567Z,43.2
2019-03-30T06:57:00.611Z,43.8
2019-03-30T06:57:50.677Z,44.3
2019-03-30T06:58:40.477Z,44.9
2019-03-30T06:59:30.803Z,45.4
2019-03-30T07:00:20.882Z,46
2019-03-30T07:01:10.714Z,46.5
2019-03-30T07:02:00.989Z,47
2019-03-30T07:02:51.031Z,47.5
2019-03-30T07:05:16.913Z,48.9
2019-03-30T07:06:06.936Z,49.6
2019-03-30T07:06:57.003Z,50.1
2019-03-30T07:07:47.078Z,50.6
2019-03-30T07:08:37.213Z,51.2
2019-03-30T07:09:27.186Z,51.7
2019-03-30T07:10:16.979Z,52.3
2019-03-30T07:11:22.603Z,52.8
2019-03-30T07:11:57.391Z,53.5
2019-03-30T07:12:47.128Z,53.9
2019-03-30T07:13:37.556Z,54.3
2019-03-30T07:14:27.529Z,54.8
2019-03-30T07:15:17.588Z,55.3
2019-03-30T07:16:07.655Z,55.8
2019-03-30T07:16:57.713Z,56.3
2019-03-30T07:17:47.769Z,56.7
2019-03-30T07:18:37.556Z,56.9
2019-03-30T07:19:27.895Z,57.1
2019-03-30T07:20:17.947Z,58
2019-03-30T07:21:07.998Z,59.1
2019-03-30T07:21:58.082Z,58.2
2019-03-30T07:22:51.148Z,56.3
2019-03-30T07:23:37.932Z,52.2
2019-03-30T07:24:28.241Z,50.6
2019-03-30T07:25:17.740Z,48.8
2019-03-30T07:26:08.362Z,47.8
2019-03-30T07:26:58.415Z,47.1
2019-03-30T07:27:48.487Z,46.6
2019-03-30T07:28:38.550Z,46.3
2019-03-30T07:29:28.613Z,46
2019-03-30T07:30:18.655Z,45.8
2019-03-30T07:31:08.708Z,45.4
2019-03-30T07:31:58.779Z,44.9
2019-03-30T07:32:49.082Z,44.6
2019-03-30T07:33:38.899Z,44.5
2019-03-30T07:34:28.977Z,44.6
2019-03-30T07:35:19.030Z,44.6
2019-03-30T07:36:09.070Z,44.4
2019-03-30T07:36:59.138Z,44.1
2019-03-30T07:37:48.912Z,43.8
2019-03-30T07:38:39.268Z,43.3
2019-03-30T07:39:29.409Z,42.9
2019-03-30T07:40:19.384Z,42.6
2019-03-30T07:41:09.447Z,42.2
2019-03-30T07:41:59.253Z,41.8
2019-03-30T07:42:49.287Z,41.4
2019-03-30T07:43:39.635Z,40.9
2019-03-30T07:44:29.392Z,40.6
2019-03-30T07:45:19.737Z,40.3
2019-03-30T07:46:09.524Z,40.1
2019-03-30T07:46:59.862Z,40.1
2019-03-30T07:47:49.646Z,40.1
2019-03-30T07:48:39.721Z,40
2019-03-30T07:49:30.036Z,39.8
2019-03-30T07:50:19.823Z,39.5
2019-03-30T07:51:10.154Z,39.1
2019-03-30T07:52:00.229Z,38.8
2019-03-30T07:52:50.300Z,38.6
2019-03-30T07:53:46.694Z,38.6
2019-03-30T07:54:30.428Z,38.6
2019-03-30T07:55:20.192Z,38.4
2019-03-30T07:56:11.051Z,38.3
2019-03-30T07:57:18.596Z,38.1
2019-03-30T07:57:50.641Z,37.9
2019-03-30T07:58:40.704Z,37.8
2019-03-30T07:59:30.796Z,37.7
2019-03-30T08:00:20.833Z,37.6
2019-03-30T08:01:10.606Z,37.6
2019-03-30T08:02:00.955Z,37.4
2019-03-30T08:02:51.006Z,37.2
2019-03-30T08:03:41.058Z,36.9
2019-03-30T08:04:31.216Z,36.7
2019-03-30T08:05:21.199Z,36.4
2019-03-30T08:06:11.254Z,36.3
2019-03-30T08:07:01.301Z,36.2
2019-03-30T08:07:51.363Z,36.1
2019-03-30T08:08:41.420Z,35.9
2019-03-30T08:09:31.199Z,35.8
2019-03-30T08:10:21.544Z,35.7
2019-03-30T08:11:14.863Z,35.6
2019-03-30T08:12:01.400Z,35.5
2019-03-30T08:12:51.727Z,35.4
2019-03-30T08:13:41.521Z,35.5
2019-03-30T08:14:31.835Z,35.7
2019-03-30T08:15:21.646Z,36.1
2019-03-30T08:16:11.410Z,36.7
2019-03-30T08:17:02.012Z,37.6
2019-03-30T08:17:52.089Z,38.6
2019-03-30T08:18:42.145Z,39.9
2019-03-30T08:19:32.208Z,41.4
2019-03-30T08:20:22.525Z,42.9
2019-03-30T08:21:12.322Z,44.3
2019-03-30T08:22:02.095Z,45.7
2019-03-30T08:22:52.450Z,46.9
2019-03-30T08:23:42.900Z,48.1
2019-03-30T08:24:32.294Z,49.4
2019-03-30T08:25:22.632Z,50.6
2019-03-30T08:26:12.677Z,51.8
2019-03-30T08:27:02.829Z,52.9
2019-03-30T08:27:52.810Z,53.9
2019-03-30T08:28:42.879Z,55.1
2019-03-30T08:29:32.920Z,55.8
2019-03-30T08:30:22.985Z,56.8
2019-03-30T08:31:13.044Z,57.6
2019-03-30T08:32:02.837Z,59.2
2019-03-30T08:32:52.904Z,59.8
2019-03-30T08:33:43.219Z,58.4
2019-03-30T08:34:33.284Z,56.5
2019-03-30T08:35:23.383Z,52.8
2019-03-30T08:36:13.402Z,49.6
2019-03-30T08:37:03.476Z,47.8
2019-03-30T08:37:53.519Z,46.9
2019-03-30T08:38:43.652Z,46.7
2019-03-30T08:39:33.364Z,46.9
2019-03-30T08:40:23.494Z,47.6
2019-03-30T08:41:13.874Z,48.3
2019-03-30T08:42:03.812Z,49.1
2019-03-30T08:42:53.876Z,49.8
2019-03-30T08:43:43.928Z,50.3
2019-03-30T08:44:33.996Z,50.4
2019-03-30T08:45:24.058Z,50.6
2019-03-30T08:46:13.859Z,51
2019-03-30T08:47:04.181Z,51.7
2019-03-30T08:47:53.961Z,52.6
2019-03-30T08:48:44.024Z,53.6
2019-03-30T08:49:34.352Z,54.6
2019-03-30T08:50:24.147Z,55.5
2019-03-30T08:51:14.486Z,56.4
2019-03-30T08:52:04.529Z,57.4
2019-03-30T08:52:54.595Z,58.9
2019-03-30T08:53:56.688Z,59.4
2019-03-30T08:54:34.712Z,58.7
2019-03-30T08:55:24.765Z,58
2019-03-30T08:56:14.841Z,56.4
2019-03-30T08:57:04.910Z,54.8
2019-03-30T08:57:55.185Z,53.6
2019-03-30T08:58:44.588Z,53.1
2019-03-30T08:59:35.081Z,53
2019-03-30T09:00:25.127Z,53.4
2019-03-30T09:01:14.917Z,54.1
2019-03-30T09:02:04.715Z,55.1
2019-03-30T09:02:55.320Z,55.6
2019-03-30T09:03:45.127Z,56.6
2019-03-30T09:04:35.430Z,58.5
2019-03-30T09:05:25.212Z,59.3
2019-03-30T09:06:15.557Z,59.6
2019-03-30T09:07:05.629Z,59.6
2019-03-30T09:07:55.405Z,58.5
2019-03-30T09:08:45.730Z,57.2
2019-03-30T09:09:35.525Z,56.3
2019-03-30T09:10:25.607Z,56.3
2019-03-30T09:11:15.912Z,56.8
2019-03-30T09:12:05.542Z,57.3
2019-03-30T09:12:56.037Z,57.7
2019-03-30T09:13:46.097Z,57.9
2019-03-30T09:14:36.145Z,57.9
2019-03-30T09:15:26.204Z,57.6
2019-03-30T09:16:15.984Z,57.5
2019-03-30T09:17:06.337Z,57.6
2019-03-30T09:17:56.389Z,57.9
2019-03-30T09:18:46.177Z,58.3
2019-03-30T09:20:26.135Z,58.7
2019-03-30T09:21:16.174Z,58.8
2019-03-30T09:22:06.782Z,58.8
2019-03-30T09:22:56.756Z,58.8
2019-03-30T09:23:46.538Z,58.9
2019-03-30T09:24:36.597Z,59.2
2019-03-30T09:25:26.936Z,59.3
2019-03-30T09:26:18.759Z,59.4
2019-03-30T09:27:06.773Z,59.5
2019-03-30T09:27:57.108Z,59.6
2019-03-30T09:28:47.171Z,59.8
2019-03-30T09:29:37.257Z,59.9
2019-03-30T09:30:27.049Z,60
2019-03-30T09:31:17.433Z,60.1
2019-03-30T09:32:16.678Z,60.3
2019-03-30T09:32:57.483Z,60.5
2019-03-30T09:33:47.571Z,60.6
2019-03-30T09:34:37.580Z,60.6
2019-03-30T09:35:27.373Z,60.7
2019-03-30T09:36:17.713Z,60.8
2019-03-30T09:37:07.228Z,60.8
2019-03-30T09:37:58.063Z,60.9
2019-03-30T09:38:47.891Z,61
2019-03-30T09:39:38.028Z,61.1
2019-03-30T09:40:27.726Z,61.1
2019-03-30T09:41:18.060Z,61.1
2019-03-30T09:42:08.130Z,61.1
2019-03-30T09:42:57.963Z,61.3
2019-03-30T09:43:48.256Z,61.4
2019-03-30T09:44:38.292Z,61.5
2019-03-30T09:45:28.365Z,61.5
2019-03-30T09:46:18.421Z,61.4
2019-03-30T09:47:07.943Z,61.4
2019-03-30T09:47:58.545Z,61.4
2019-03-30T09:48:48.325Z,61.4
2019-03-30T09:49:38.390Z,61.4
2019-03-30T09:50:28.450Z,61.5
2019-03-30T09:51:18.785Z,61.5
2019-03-30T09:52:08.565Z,61.6
2019-03-30T09:52:58.633Z,61.6
2019-03-30T09:53:48.969Z,61.6
2019-03-30T09:54:38.762Z,61.5
2019-03-30T09:55:29.602Z,61.4
2019-03-30T09:56:18.607Z,61.4
2019-03-30T09:57:09.233Z,61.4
2019-03-30T09:57:59.274Z,61.4
2019-03-30T09:58:48.854Z,61.3
2019-03-30T09:59:39.389Z,60.7
2019-03-30T10:00:29.539Z,60.1
2019-03-30T10:01:19.504Z,59.9
2019-03-30T10:02:09.577Z,60.1
2019-03-30T10:02:59.429Z,60.4
2019-03-30T10:03:49.683Z,60.8
2019-03-30T10:06:16.456Z,59.8
2019-03-30T10:07:06.570Z,58.9
2019-03-30T10:07:56.859Z,58.8
2019-03-30T10:08:46.924Z,58.6
2019-03-30T10:09:36.983Z,58.4
2019-03-30T10:10:26.759Z,58.4
2019-03-30T10:11:17.081Z,58.4
2019-03-30T10:12:06.873Z,58.4
2019-03-30T10:12:57.205Z,58.4
2019-03-30T10:13:47.266Z,58.4
2019-03-30T10:14:37.050Z,58.3
2019-03-30T10:15:27.386Z,58.1
2019-03-30T10:16:17.449Z,58.1
2019-03-30T10:17:07.511Z,58.1
2019-03-30T10:17:57.288Z,58.4
2019-03-30T10:18:47.623Z,58.7
2019-03-30T10:19:37.404Z,58.9
2019-03-30T10:20:27.752Z,59.3
2019-03-30T10:21:17.893Z,59.6
2019-03-30T10:22:07.875Z,59.8
2019-03-30T10:22:57.747Z,59.9
2019-03-30T10:23:47.991Z,60.3
2019-03-30T10:24:40.463Z,60.6
2019-03-30T10:25:27.833Z,60.9
2019-03-30T10:26:18.158Z,61.2
2019-03-30T10:27:08.293Z,61.5
2019-03-30T10:27:58.295Z,61.8
2019-03-30T10:28:49.173Z,62
2019-03-30T10:29:38.415Z,62.1
2019-03-30T10:30:28.180Z,62.3
2019-03-30T10:31:18.525Z,62.4
2019-03-30T10:32:08.355Z,62.4
2019-03-30T10:32:58.196Z,62.6
2019-03-30T10:33:48.162Z,62.6
2019-03-30T10:34:41.501Z,62.8
2019-03-30T10:35:28.540Z,62.8
2019-03-30T10:36:18.605Z,62.9
2019-03-30T10:37:08.952Z,62.9
2019-03-30T10:37:59.006Z,62.9
2019-03-30T10:38:48.789Z,62.9
2019-03-30T10:39:38.570Z,63
2019-03-30T10:40:29.189Z,62.9
2019-03-30T10:41:19.255Z,62.8
2019-03-30T10:42:09.042Z,62.7
2019-03-30T10:42:59.374Z,62.7
2019-03-30T10:43:49.435Z,62.8
2019-03-30T10:44:39.214Z,62.9
2019-03-30T10:45:29.284Z,62.9
2019-03-30T10:46:19.046Z,62.9
2019-03-30T10:47:09.687Z,62.9
2019-03-30T10:47:59.719Z,62.8
2019-03-30T10:48:49.499Z,62.8
2019-03-30T10:49:39.859Z,62.8
2019-03-30T10:50:29.919Z,62.9
2019-03-30T10:51:20.036Z,62.9
2019-03-30T10:52:10.065Z,62.9
2019-03-30T10:53:00.151Z,62.9
2019-03-30T10:53:50.146Z,63
2019-03-30T10:54:54.818Z,63
2019-03-30T10:55:30.004Z,63.1
2019-03-30T10:56:20.346Z,63.1
2019-03-30T10:57:10.386Z,63.2
2019-03-30T10:58:00.899Z,63.3
2019-03-30T10:58:50.509Z,63.5
2019-03-30T10:59:40.568Z,63.6
2019-03-30T11:00:30.631Z,63.7
2019-03-30T11:01:20.400Z,63.8
2019-03-30T11:02:10.750Z,63.9
2019-03-30T11:03:00.800Z,63.9
2019-03-30T11:03:50.874Z,63.9
2019-03-30T11:04:40.429Z,63.9
2019-03-30T11:05:30.983Z,64
2019-03-30T11:06:21.043Z,64.1
2019-03-30T11:07:10.836Z,64.1
2019-03-30T11:08:01.161Z,64.2
2019-03-30T11:08:50.975Z,64.3
2019-03-30T11:09:41.289Z,64.4
2019-03-30T11:10:31.367Z,64.5
2019-03-30T11:11:21.465Z,64.6
2019-03-30T11:12:11.458Z,64.5
2019-03-30T11:13:01.297Z,64.5
2019-03-30T11:13:51.595Z,64.4
2019-03-30T11:14:41.730Z,64.3
2019-03-30T11:15:35.570Z,64.2
2019-03-30T11:16:21.767Z,64
2019-03-30T11:17:11.830Z,63.9
2019-03-30T11:18:01.882Z,63.8
2019-03-30T11:18:51.949Z,63.6
2019-03-30T11:19:41.727Z,63.6
2019-03-30T11:20:32.072Z,63.6
2019-03-30T11:21:22.120Z,63.6
2019-03-30T11:22:12.192Z,63.6
2019-03-30T11:23:02.257Z,63.5
2019-03-30T11:23:51.749Z,63.5
2019-03-30T11:24:42.107Z,63.5
2019-03-30T11:25:32.431Z,63.5
2019-03-30T11:26:22.491Z,63.6
2019-03-30T11:27:12.267Z,63.6
2019-03-30T11:28:02.598Z,63.8
2019-03-30T11:28:52.674Z,63.9
2019-03-30T11:29:42.183Z,63.9
2019-03-30T11:30:32.808Z,63.9
2019-03-30T11:31:22.935Z,63.9
2019-03-30T11:32:12.924Z,63.9
2019-03-30T11:33:02.699Z,63.8
2019-03-30T11:33:53.114Z,63.8
2019-03-30T11:34:43.089Z,63.8
2019-03-30T11:35:33.212Z,63.8
2019-03-30T11:36:23.211Z,63.8
2019-03-30T11:37:13.290Z,63.8
2019-03-30T11:38:03.382Z,63.6
2019-03-30T11:38:53.398Z,63.7
2019-03-30T11:39:43.451Z,63.7
2019-03-30T11:40:33.505Z,63.6
2019-03-30T11:41:26.859Z,63.6
2019-03-30T11:42:13.628Z,63.5
2019-03-30T11:43:03.712Z,63.4
2019-03-30T11:43:53.765Z,63.4
2019-03-30T11:44:43.815Z,63.3
2019-03-30T11:45:33.888Z,63.3
2019-03-30T11:46:23.671Z,63.3
2019-03-30T11:47:13.993Z,63.3
2019-03-30T11:48:03.836Z,63.4
2019-03-30T11:48:53.847Z,63.4
2019-03-30T11:49:43.973Z,63.4
2019-03-30T11:50:34.240Z,63.3
2019-03-30T11:51:24.284Z,63.1
2019-03-30T11:52:14.065Z,62.9
2019-03-30T11:53:04.420Z,62.8
2019-03-30T11:53:54.189Z,62.7
2019-03-30T11:54:44.530Z,62.5
2019-03-30T11:55:34.120Z,62.4
2019-03-30T11:56:24.191Z,62
2019-03-30T11:57:14.236Z,61.6
2019-03-30T11:58:04.313Z,61.4
2019-03-30T11:58:54.372Z,61.2
2019-03-30T11:59:44.414Z,61.1
2019-03-30T12:00:33.922Z,61.2
2019-03-30T12:01:24.613Z,61.3
2019-03-30T12:02:29.517Z,61.4
2019-03-30T12:03:04.667Z,61.4
2019-03-30T12:03:54.711Z,61.4
2019-03-30T12:06:15.605Z,61.4
2019-03-30T12:07:06.220Z,61.5
2019-03-30T12:07:56.276Z,61.6
2019-03-30T12:08:47.098Z,61.6
2019-03-30T12:09:36.441Z,61.7
2019-03-30T12:10:40.849Z,61.8
2019-03-30T12:11:16.799Z,61.8
2019-03-30T12:12:07.154Z,61.8
2019-03-30T12:12:57.144Z,61.7
2019-03-30T12:13:47.404Z,61.3
2019-03-30T12:14:37.317Z,60.8
2019-03-30T12:15:27.334Z,60.3
2019-03-30T12:16:17.280Z,59.8
2019-03-30T12:17:07.428Z,59.7
2019-03-30T12:17:57.911Z,59.8
2019-03-30T12:18:47.524Z,60
2019-03-30T12:19:37.598Z,60.3
2019-03-30T12:20:27.661Z,60.4
2019-03-30T12:21:17.451Z,60.6
2019-03-30T12:22:07.496Z,60.9
2019-03-30T12:22:57.843Z,61.3
2019-03-30T12:23:47.618Z,61.6
2019-03-30T12:24:37.133Z,62.1
2019-03-30T12:25:37.841Z,62.6
2019-03-30T12:26:18.082Z,63.2
2019-03-30T12:27:07.861Z,63.6
2019-03-30T12:27:57.646Z,64.1
2019-03-30T12:28:48.288Z,65.3
2019-03-30T12:29:38.118Z,66.7
2019-03-30T12:30:28.583Z,66.4
2019-03-30T12:31:18.430Z,65.5
2019-03-30T12:32:08.505Z,63.6
2019-03-30T12:32:58.300Z,61.6
2019-03-30T12:33:48.350Z,59.9
2019-03-30T12:34:38.670Z,58.8
2019-03-30T12:35:28.818Z,58.2
2019-03-30T12:36:18.803Z,57.9
2019-03-30T12:37:08.877Z,57.9
2019-03-30T12:37:58.950Z,57.8
2019-03-30T12:38:48.982Z,57.8
2019-03-30T12:39:39.042Z,57.9
2019-03-30T12:40:29.112Z,58.1
2019-03-30T12:41:19.182Z,58.3
2019-03-30T12:42:09.232Z,58.5
2019-03-30T12:42:59.022Z,58.5
2019-03-30T12:44:38.594Z,58.6
2019-03-30T12:45:29.183Z,58.8
2019-03-30T12:46:19.247Z,58.9
2019-03-30T12:47:12.097Z,59.1
2019-03-30T12:47:59.648Z,59.3
2019-03-30T12:48:49.697Z,59.5
2019-03-30T12:49:39.342Z,59.8
2019-03-30T12:50:29.842Z,59.9
2019-03-30T14:07:16.076Z,45.5
2019-03-30T14:08:06.124Z,45.4
2019-03-30T14:08:56.263Z,45.4
2019-03-30T14:09:46.243Z,45.4
2019-03-30T14:10:39.936Z,45.4
2019-03-30T14:11:26.368Z,45.4
2019-03-30T14:12:16.423Z,45.4
2019-03-30T14:13:06.480Z,45.3
2019-03-30T14:13:56.545Z,45.2
2019-03-30T14:14:46.080Z,45.1
2019-03-30T14:15:36.678Z,44.9
2019-03-30T14:16:26.720Z,44.7
2019-03-30T14:17:19.938Z,44.6
2019-03-30T14:18:06.861Z,44.4
2019-03-30T14:18:56.651Z,44.3
2019-03-30T14:19:46.743Z,44.3
2019-03-30T14:20:37.028Z,44.1
2019-03-30T14:21:27.082Z,44.1
2019-03-30T14:22:17.150Z,44
2019-03-30T14:23:07.218Z,43.8
2019-03-30T14:23:57.277Z,43.6
2019-03-30T14:24:47.329Z,43.4
2019-03-30T14:25:37.398Z,43.2
2019-03-30T14:26:33.078Z,42.9
2019-03-30T14:27:17.238Z,42.8
2019-03-30T14:28:07.298Z,42.6
2019-03-30T14:28:57.636Z,42.4
2019-03-30T14:29:47.698Z,42.2
2019-03-30T14:30:37.771Z,41.8
2019-03-30T14:31:27.826Z,41.6
2019-03-30T14:32:17.883Z,41.3
2019-03-30T14:33:07.951Z,41.1
2019-03-30T14:33:57.451Z,40.9
2019-03-30T14:34:48.070Z,40.7
2019-03-30T14:35:38.145Z,40.5
2019-03-30T14:36:27.916Z,40.4
2019-03-30T14:37:18.243Z,40.3
2019-03-30T14:38:08.313Z,40.1
2019-03-30T14:38:58.368Z,39.9
2019-03-30T14:39:48.433Z,39.7
2019-03-30T14:40:38.493Z,39.5
2019-03-30T14:41:28.558Z,39.3
2019-03-30T14:42:18.344Z,39.1
2019-03-30T14:43:08.681Z,38.9
2019-03-30T14:43:58.477Z,38.6
2019-03-30T14:44:48.805Z,38.4
2019-03-30T14:45:38.891Z,38.1
2019-03-30T14:46:28.953Z,37.9
2019-03-30T14:47:18.985Z,37.7
2019-03-30T14:48:09.063Z,37.4
2019-03-30T14:48:58.833Z,37.3
2019-03-30T14:49:49.177Z,37.1
2019-03-30T14:50:39.219Z,36.8
2019-03-30T14:51:29.297Z,36.6
2019-03-30T14:52:19.397Z,36.4
2019-03-30T14:53:09.520Z,36.2
2019-03-30T14:53:59.559Z,35.9
2019-03-30T14:54:54.703Z,35.8
2019-03-30T14:55:41.283Z,35.5
2019-03-30T14:56:29.639Z,35.2
2019-03-30T14:57:19.926Z,34.9
2019-03-30T14:58:10.396Z,34.8
2019-03-30T14:59:15.409Z,34.5
2019-03-30T14:59:50.384Z,34.3
2019-03-30T15:00:41.157Z,34.1
2019-03-30T15:01:30.661Z,33.9
2019-03-30T15:02:20.285Z,33.8
2019-03-30T15:03:10.649Z,33.6
2019-03-30T15:04:00.686Z,33.5
2019-03-30T15:04:50.759Z,33.3
2019-03-30T15:05:40.601Z,33.1
2019-03-30T15:06:30.949Z,33
2019-03-30T15:07:20.652Z,32.8
2019-03-30T15:08:10.446Z,32.6
2019-03-30T15:09:01.036Z,32.4
2019-03-30T15:09:51.123Z,32.1
2019-03-30T15:10:41.173Z,31.9
2019-03-30T15:11:31.236Z,31.8
2019-03-30T15:12:21.298Z,31.6
2019-03-30T15:13:10.891Z,31.4
2019-03-30T15:14:00.936Z,31.2
2019-03-30T15:14:51.003Z,31
2019-03-30T15:15:41.079Z,30.8
2019-03-30T15:16:31.197Z,30.6
2019-03-30T15:17:21.188Z,30.4
2019-03-30T15:18:11.250Z,30.3
2019-03-30T15:19:01.381Z,30.1
2019-03-30T15:19:51.116Z,29.9
2019-03-30T15:20:41.424Z,29.7
2019-03-30T15:21:31.230Z,29.4
2019-03-30T15:22:21.755Z,29.3
2019-03-30T15:23:11.805Z,29.1
2019-03-30T15:24:02.183Z,28.9
2019-03-30T15:24:51.931Z,28.7
2019-03-30T15:25:42.005Z,28.4
2019-03-30T15:26:32.332Z,28.3
2019-03-30T15:27:22.392Z,28
2019-03-30T15:29:02.240Z,27.6
2019-03-30T15:29:52.587Z,27.4
2019-03-30T15:30:42.635Z,27.2
2019-03-30T15:31:32.697Z,27
2019-03-30T15:32:22.767Z,26.8
2019-03-30T15:33:12.563Z,26.6
2019-03-30T15:34:02.892Z,26.4
2019-03-30T15:34:53.002Z,26.1
2019-03-30T15:35:43.007Z,25.9
2019-03-30T15:36:33.064Z,25.8
2019-03-30T15:37:22.572Z,25.5
2019-03-30T15:38:13.200Z,25.4
2019-03-30T15:39:03.242Z,25.2
2019-03-30T15:39:53.317Z,25
2019-03-30T15:40:43.105Z,24.8
2019-03-30T15:41:33.153Z,24.6
2019-03-30T15:42:23.285Z,24.4